Time;durP1;ratioP1;P1;durP2;ratioP2;P2;SDS_P1;SDS_P2;PMS_P1;PMS_P2;Temp;Humidity;BMP_temperature;BMP_pressure;BME280_temperature;BME280_humidity;BME280_pressure;Samples;Min_cycle;Max_cycle;Signal;HPM_P1;HPM_P2
2023/01/19 00:00:00;;;;;;;9.48;4.63;;;3.60;99.90;;;;;;5056894;28;20040;-66
2023/01/19 00:02:26;;;;;;;5.53;4.75;;;3.50;99.90;;;;;;5074411;28;20119;-66
2023/01/19 00:04:52;;;;;;;5.75;4.85;;;3.50;99.90;;;;;;5074681;28;20495;-66
2023/01/19 00:07:17;;;;;;;4.75;4.28;;;3.40;99.90;;;;;;5075144;28;20423;-66
2023/01/19 00:09:43;;;;;;;5.75;4.13;;;3.50;99.90;;;;;;5074592;28;20373;-66
2023/01/19 00:12:09;;;;;;;5.57;5.07;;;3.90;99.90;;;;;;5074740;28;20044;-66
2023/01/19 00:14:34;;;;;;;5.60;4.35;;;3.40;99.90;;;;;;5074200;28;20075;-66
2023/01/19 00:17:00;;;;;;;5.15;4.35;;;3.40;99.90;;;;;;5074700;28;20052;-66
2023/01/19 00:19:27;;;;;;;4.78;4.38;;;3.50;99.90;;;;;;5056267;28;20047;-66
2023/01/19 00:21:53;;;;;;;5.28;4.25;;;3.50;99.90;;;;;;5056356;28;20044;-66
2023/01/19 00:24:19;;;;;;;10.88;4.80;;;3.50;99.90;;;;;;5074054;28;20051;-66
2023/01/19 00:26:45;;;;;;;6.85;4.38;;;3.50;99.90;;;;;;5073982;28;20036;-66
2023/01/19 00:29:11;;;;;;;4.88;4.47;;;3.50;99.90;;;;;;5073942;28;20036;-66
2023/01/19 00:31:37;;;;;;;5.45;4.25;;;3.60;99.90;;;;;;5073954;28;20088;-66
2023/01/19 00:34:04;;;;;;;6.53;4.28;;;3.60;99.90;;;;;;5073888;28;20044;-66
2023/01/19 00:36:30;;;;;;;8.38;3.78;;;3.60;99.90;;;;;;5073912;28;20412;-66
2023/01/19 00:38:56;;;;;;;6.82;4.40;;;3.70;99.90;;;;;;5073891;28;20033;-66
2023/01/19 00:42:38;;;;;;;4.82;3.75;;;3.60;99.90;;;;;;5073872;28;20048;-66
2023/01/19 00:44:08;;;;;;;7.35;5.40;;;3.70;99.90;;;;;;5056510;28;20044;-66
2023/01/19 00:46:34;;;;;;;3.33;2.97;;;3.70;99.90;;;;;;5056468;28;20119;-66
2023/01/19 00:49:00;;;;;;;3.40;2.90;;;3.70;99.90;;;;;;5074353;28;20040;-66
2023/01/19 00:51:25;;;;;;;4.78;4.00;;;3.70;99.90;;;;;;5073781;28;20036;-66
2023/01/19 00:53:51;;;;;;;3.72;3.00;;;3.70;99.90;;;;;;5074277;28;20421;-66
2023/01/19 00:56:17;;;;;;;3.60;2.85;;;3.70;99.90;;;;;;5073716;28;20040;-66
2023/01/19 00:58:44;;;;;;;3.88;2.67;;;3.70;99.90;;;;;;5074344;28;20147;-66
2023/01/19 01:01:09;;;;;;;4.40;2.80;;;3.70;99.90;;;;;;5055928;28;20044;-66
2023/01/19 01:03:35;;;;;;;3.90;2.50;;;3.70;99.90;;;;;;5073593;28;20047;-66
2023/01/19 01:06:02;;;;;;;4.40;2.55;;;3.80;99.90;;;;;;5073598;28;20090;-66
2023/01/19 01:08:29;;;;;;;2.28;2.10;;;3.80;99.90;;;;;;5073597;28;20487;-67
2023/01/19 01:10:55;;;;;;;5.35;1.90;;;3.80;99.90;;;;;;5075759;28;20084;-66
2023/01/19 01:13:21;;;;;;;2.35;2.13;;;3.80;99.90;;;;;;5060110;28;20174;-66
2023/01/19 01:15:54;;;;;;;2.42;1.70;;;3.90;99.90;;;;;;5077612;28;20097;-66
2023/01/19 01:18:21;;;;;;;2.83;1.70;;;3.70;99.90;;;;;;5077499;28;20047;-66
2023/01/19 01:20:47;;;;;;;2.95;2.22;;;4.10;99.90;;;;;;5077578;28;20040;-66
2023/01/19 01:23:13;;;;;;;2.10;1.88;;;3.60;99.90;;;;;;5077497;28;20052;-66
2023/01/19 01:25:39;;;;;;;2.05;1.95;;;3.50;99.90;;;;;;5077409;28;20036;-66
2023/01/19 01:28:07;;;;;;;2.60;2.40;;;3.50;99.90;;;;;;5077506;28;20047;-66
2023/01/19 01:30:34;;;;;;;2.55;2.28;;;3.40;99.90;;;;;;5077934;28;20037;-66
2023/01/19 01:33:00;;;;;;;3.00;2.80;;;3.30;99.90;;;;;;5077851;28;20076;-67
2023/01/19 01:35:26;;;;;;;3.33;2.45;;;3.30;99.90;;;;;;5077244;28;20509;-67
2023/01/19 01:37:52;;;;;;;2.83;2.53;;;3.80;99.90;;;;;;5077153;28;20167;-67
2023/01/19 01:40:18;;;;;;;2.65;2.47;;;3.20;99.90;;;;;;5077192;28;20052;-67
2023/01/19 01:42:44;;;;;;;4.13;2.42;;;3.30;99.90;;;;;;5077194;28;20052;-66
2023/01/19 01:45:34;;;;;;;3.88;2.58;;;3.30;99.90;;;;;;5077639;28;20052;-66
2023/01/19 01:48:24;;;;;;;2.50;2.30;;;3.70;99.90;;;;;;5067313;28;20473;-66
2023/01/19 01:53:38;;;;;;;3.20;2.83;;;3.20;99.90;;;;;;5077227;28;20056;-66
2023/01/19 01:56:11;;;;;;;3.13;2.60;;;3.10;99.90;;;;;;5077345;28;20055;-66
2023/01/19 01:58:38;;;;;;;3.00;2.70;;;3.10;99.90;;;;;;5077627;28;20059;-66
2023/01/19 02:03:50;;;;;;;4.68;2.90;;;3.30;99.90;;;;;;5077322;28;20048;-66
2023/01/19 02:06:16;;;;;;;3.13;2.83;;;3.30;99.90;;;;;;5076644;28;20040;-66
2023/01/19 02:14:20;;;;;;;3.92;3.60;;;3.10;99.90;;;;;;5059759;28;20449;-66
2023/01/19 02:16:46;;;;;;;3.70;3.17;;;3.10;99.90;;;;;;5076465;28;20041;-66
2023/01/19 02:19:21;;;;;;;5.05;3.40;;;3.40;99.90;;;;;;5058656;28;20037;-66
2023/01/19 02:22:02;;;;;;;7.97;4.22;;;3.10;99.90;;;;;;5076340;28;20458;-66
2023/01/19 02:24:28;;;;;;;3.63;3.33;;;3.10;99.90;;;;;;5076949;28;20044;-66
2023/01/19 02:26:55;;;;;;;4.40;4.00;;;3.40;99.90;;;;;;5076155;28;20472;-66
2023/01/19 02:29:24;;;;;;;4.68;4.18;;;3.20;99.90;;;;;;5076286;28;20041;-66
2023/01/19 02:31:51;;;;;;;6.65;4.57;;;3.30;99.90;;;;;;5076245;28;20049;-66
2023/01/19 02:34:19;;;;;;;6.05;4.18;;;3.20;99.90;;;;;;5058373;28;20047;-66
2023/01/19 02:36:57;;;;;;;4.82;4.43;;;3.20;99.90;;;;;;5076110;28;20049;-66
2023/01/19 02:39:35;;;;;;;5.20;4.55;;;3.20;99.90;;;;;;5075963;28;20036;-66
2023/01/19 02:42:12;;;;;;;5.00;3.92;;;3.40;99.90;;;;;;5076634;28;20041;-67
2023/01/19 02:44:39;;;;;;;5.00;4.47;;;3.30;99.90;;;;;;5076627;28;20044;-66
2023/01/19 02:47:06;;;;;;;5.25;4.05;;;3.30;99.90;;;;;;5075707;28;20603;-66
2023/01/19 02:49:32;;;;;;;5.13;4.63;;;3.40;99.90;;;;;;5075894;28;20128;-66
2023/01/19 02:51:59;;;;;;;5.57;4.55;;;3.30;99.90;;;;;;5076403;28;20075;-67
2023/01/19 02:54:45;;;;;;;6.15;4.07;;;3.50;99.90;;;;;;5058116;28;20523;-66
2023/01/19 02:57:17;;;;;;;5.70;4.57;;;3.60;99.90;;;;;;5075808;28;20123;-66
2023/01/19 03:00:08;;;;;;;7.50;5.13;;;3.40;99.90;;;;;;5076228;28;20043;-67
2023/01/19 03:02:55;;;;;;;5.00;4.57;;;3.40;99.90;;;;;;5076616;28;20047;-67
2023/01/19 03:05:45;;;;;;;6.07;5.43;;;3.40;99.90;;;;;;5075650;28;20082;-67
2023/01/19 03:08:32;;;;;;;7.05;6.38;;;3.40;99.90;;;;;;5076440;28;20056;-66
2023/01/19 03:11:07;;;;;;;6.78;6.13;;;3.30;99.90;;;;;;5075488;28;20045;-66
2023/01/19 03:13:58;;;;;;;8.43;7.00;;;3.40;99.90;;;;;;5076272;28;20057;-66
2023/01/19 03:16:33;;;;;;;6.70;5.88;;;3.30;99.90;;;;;;5048006;28;20495;-66
2023/01/19 03:19:08;;;;;;;7.28;5.70;;;3.40;99.90;;;;;;5075287;28;20045;-66
2023/01/19 03:21:36;;;;;;;7.88;5.97;;;3.40;99.90;;;;;;5075826;28;20055;-67
2023/01/19 03:24:05;;;;;;;6.47;5.78;;;3.40;99.90;;;;;;5057377;28;20093;-66
2023/01/19 03:26:36;;;;;;;6.32;5.72;;;3.50;99.90;;;;;;5075158;28;20067;-66
2023/01/19 03:29:05;;;;;;;7.78;6.22;;;3.50;99.90;;;;;;5075171;28;20048;-66
2023/01/19 03:31:32;;;;;;;7.30;5.25;;;3.50;99.90;;;;;;5075931;28;20056;-66
2023/01/19 03:34:06;;;;;;;5.13;4.57;;;3.50;99.90;;;;;;5074478;28;20048;-66
2023/01/19 03:36:37;;;;;;;5.28;4.78;;;3.50;99.90;;;;;;5075038;28;20040;-66
2023/01/19 03:39:07;;;;;;;7.05;5.75;;;3.50;99.90;;;;;;5075712;28;20080;-66
2023/01/19 03:41:34;;;;;;;9.10;6.65;;;3.50;99.90;;;;;;5074804;28;20040;-66
2023/01/19 03:44:01;;;;;;;7.00;5.43;;;3.50;99.90;;;;;;5057155;28;20098;-66
2023/01/19 03:46:27;;;;;;;5.50;4.90;;;3.50;99.90;;;;;;5074544;28;20052;-66
2023/01/19 03:48:54;;;;;;;5.82;5.28;;;3.80;99.90;;;;;;5057728;28;20059;-66
2023/01/19 03:51:21;;;;;;;8.00;5.13;;;3.50;99.90;;;;;;5074583;28;20052;-66
2023/01/19 03:53:48;;;;;;;6.63;5.10;;;3.50;99.90;;;;;;5074642;28;20036;-66
2023/01/19 03:56:27;;;;;;;6.65;5.30;;;3.50;99.90;;;;;;5075078;28;20040;-66
2023/01/19 03:58:52;;;;;;;5.28;4.78;;;3.60;99.90;;;;;;5074795;28;20044;-66
2023/01/19 04:01:22;;;;;;;5.28;4.78;;;3.50;99.90;;;;;;5075036;28;20509;-66
2023/01/19 04:03:49;;;;;;;4.28;3.88;;;3.50;99.90;;;;;;5074931;28;20049;-66
2023/01/19 04:06:15;;;;;;;6.00;5.10;;;3.40;99.90;;;;;;5074390;28;20041;-67
2023/01/19 04:08:40;;;;;;;4.80;4.40;;;3.40;99.90;;;;;;5074842;28;20032;-67
2023/01/19 04:11:07;;;;;;;4.90;4.50;;;3.40;99.90;;;;;;5056650;28;20052;-67
2023/01/19 04:13:33;;;;;;;5.57;4.55;;;3.50;99.90;;;;;;5073948;28;20481;-67
2023/01/19 04:16:02;;;;;;;5.47;4.95;;;3.40;99.90;;;;;;5074236;28;20044;-66
2023/01/19 04:18:30;;;;;;;4.80;4.30;;;3.40;99.90;;;;;;5074695;28;20362;-66
2023/01/19 04:21:00;;;;;;;4.70;4.30;;;3.50;99.90;;;;;;5074211;28;20044;-67
2023/01/19 04:23:26;;;;;;;7.22;5.38;;;3.50;99.90;;;;;;5074191;28;20048;-66
2023/01/19 04:26:04;;;;;;;5.57;4.22;;;3.50;99.90;;;;;;5057146;28;20059;-66
2023/01/19 04:28:30;;;;;;;4.60;4.20;;;3.50;99.90;;;;;;5074041;28;20127;-66
2023/01/19 04:30:56;;;;;;;4.07;3.60;;;3.50;99.90;;;;;;5074021;28;20147;-66
2023/01/19 04:33:22;;;;;;;4.35;3.67;;;3.60;99.90;;;;;;5074044;28;20426;-66
2023/01/19 04:35:50;;;;;;;4.63;4.22;;;3.60;99.90;;;;;;5073925;28;20041;-66
2023/01/19 04:38:16;;;;;;;3.60;3.28;;;3.60;99.90;;;;;;5073808;28;20050;-66
2023/01/19 04:40:42;;;;;;;4.35;3.50;;;3.70;99.90;;;;;;5073883;28;20040;-66
2023/01/19 04:43:08;;;;;;;4.40;4.00;;;4.10;99.90;;;;;;5074412;28;20040;-66
2023/01/19 04:45:33;;;;;;;5.22;3.55;;;3.70;99.90;;;;;;5072922;28;20043;-66
2023/01/19 04:47:59;;;;;;;5.45;3.60;;;3.80;99.90;;;;;;5073750;28;20052;-66
2023/01/19 04:50:25;;;;;;;4.05;3.65;;;3.90;99.90;;;;;;5074085;28;20076;-66
2023/01/19 04:52:51;;;;;;;4.32;3.10;;;3.80;99.90;;;;;;5073718;28;20123;-67
2023/01/19 04:55:17;;;;;;;3.80;3.33;;;3.80;99.90;;;;;;5074153;28;20047;-67
2023/01/19 04:57:43;;;;;;;3.58;3.28;;;3.80;99.90;;;;;;5073701;28;20093;-67
2023/01/19 05:00:09;;;;;;;3.95;3.17;;;3.80;99.90;;;;;;5073793;28;20213;-66
2023/01/19 05:02:35;;;;;;;2.72;2.53;;;3.80;99.90;;;;;;5073329;28;20041;-66
2023/01/19 05:05:01;;;;;;;7.25;2.92;;;3.80;99.90;;;;;;5073299;28;20039;-66
2023/01/19 05:07:27;;;;;;;2.90;2.65;;;3.80;99.90;;;;;;5073549;28;20036;-67
2023/01/19 05:09:53;;;;;;;4.38;3.40;;;4.00;99.90;;;;;;5073544;28;20058;-66
2023/01/19 05:12:19;;;;;;;5.53;2.88;;;3.90;99.90;;;;;;5055895;28;20044;-66
2023/01/19 05:14:44;;;;;;;4.93;2.95;;;3.90;99.90;;;;;;5073529;28;20044;-66
2023/01/19 05:17:11;;;;;;;2.97;2.70;;;3.90;99.90;;;;;;5074040;28;20040;-66
2023/01/19 05:19:37;;;;;;;4.35;3.20;;;3.90;99.90;;;;;;5073391;28;20032;-66
2023/01/19 05:22:03;;;;;;;3.03;2.72;;;3.90;99.90;;;;;;5073458;28;20086;-67
2023/01/19 05:24:29;;;;;;;5.03;2.92;;;3.80;99.90;;;;;;5073418;28;20051;-67
2023/01/19 05:26:55;;;;;;;2.97;2.70;;;3.90;99.90;;;;;;5073359;28;20044;-67
2023/01/19 05:29:21;;;;;;;3.25;2.65;;;3.90;99.90;;;;;;5073343;28;20036;-67
2023/01/19 05:31:46;;;;;;;4.07;2.80;;;3.90;99.90;;;;;;5073023;28;20037;-67
2023/01/19 05:34:14;;;;;;;4.18;3.00;;;3.90;99.90;;;;;;5073328;28;20048;-67
2023/01/19 05:36:40;;;;;;;2.80;2.60;;;3.90;99.90;;;;;;5073294;28;20101;-67
2023/01/19 05:39:06;;;;;;;3.28;2.92;;;3.90;99.90;;;;;;5073181;28;20070;-67
2023/01/19 05:41:31;;;;;;;4.82;2.40;;;3.80;99.90;;;;;;5073568;28;20048;-67
2023/01/19 05:43:57;;;;;;;2.92;2.10;;;4.10;99.90;;;;;;5072918;28;20047;-66
2023/01/19 05:46:23;;;;;;;2.35;2.08;;;3.90;99.90;;;;;;5073095;28;20041;-66
2023/01/19 05:48:49;;;;;;;2.40;1.95;;;3.80;99.90;;;;;;5073214;28;20071;-66
2023/01/19 05:51:15;;;;;;;3.05;1.65;;;3.80;99.90;;;;;;5073049;28;20127;-66
2023/01/19 05:53:41;;;;;;;3.95;2.70;;;3.70;99.90;;;;;;5073721;28;20123;-66
2023/01/19 05:56:08;;;;;;;2.90;2.25;;;3.80;99.90;;;;;;5055390;28;20047;-66
2023/01/19 05:58:40;;;;;;;2.45;2.25;;;3.70;99.90;;;;;;5076787;28;20046;-66
2023/01/19 06:01:08;;;;;;;2.60;2.08;;;3.80;99.90;;;;;;5077414;28;20041;-66
2023/01/19 06:03:35;;;;;;;3.50;1.98;;;3.70;99.90;;;;;;5076807;28;20048;-67
2023/01/19 06:06:02;;;;;;;2.65;2.13;;;3.80;99.90;;;;;;5076653;28;20087;-67
2023/01/19 06:08:29;;;;;;;3.60;1.80;;;3.70;99.90;;;;;;5076639;28;20028;-66
2023/01/19 06:10:54;;;;;;;2.10;1.80;;;3.80;99.90;;;;;;5076568;28;20036;-66
2023/01/19 06:13:20;;;;;;;5.38;1.63;;;3.60;99.90;;;;;;5076578;28;20119;-66
2023/01/19 06:15:46;;;;;;;2.03;1.80;;;3.70;99.90;;;;;;5058970;28;20479;-66
2023/01/19 06:18:15;;;;;;;6.35;1.73;;;3.90;99.90;;;;;;5077212;28;20040;-66
2023/01/19 06:20:41;;;;;;;3.13;1.48;;;3.70;99.90;;;;;;5076470;28;20047;-66
2023/01/19 06:23:06;;;;;;;2.60;1.40;;;3.80;99.90;;;;;;5076388;28;20036;-66
2023/01/19 06:25:32;;;;;;;1.83;1.30;;;4.00;99.90;;;;;;5076869;28;20040;-66
2023/01/19 06:27:58;;;;;;;2.38;1.27;;;4.10;99.90;;;;;;5076543;28;20036;-66
2023/01/19 06:30:23;;;;;;;1.75;1.20;;;3.90;99.90;;;;;;5076577;28;20524;-66
2023/01/19 06:32:49;;;;;;;2.55;1.40;;;3.90;99.90;;;;;;5076202;28;20473;-66
2023/01/19 06:35:15;;;;;;;1.67;1.38;;;4.30;99.90;;;;;;5076478;28;20075;-66
2023/01/19 06:37:40;;;;;;;3.53;1.67;;;3.90;99.90;;;;;;5076123;28;20101;-66
2023/01/19 06:40:07;;;;;;;2.55;1.30;;;4.00;99.90;;;;;;5076296;28;20042;-66
2023/01/19 06:42:33;;;;;;;2.63;1.20;;;4.00;99.90;;;;;;5075678;28;20439;-66
2023/01/19 06:44:59;;;;;;;2.00;1.50;;;4.00;99.90;;;;;;5076019;28;20048;-66
2023/01/19 06:47:24;;;;;;;2.78;1.50;;;4.00;99.90;;;;;;5075853;28;20526;-66
2023/01/19 06:49:50;;;;;;;2.15;1.50;;;4.00;99.90;;;;;;5075875;28;20096;-66
2023/01/19 06:52:17;;;;;;;2.45;1.10;;;4.00;99.90;;;;;;5075824;28;20080;-66
2023/01/19 06:54:44;;;;;;;2.15;1.05;;;4.00;99.90;;;;;;5076368;28;20084;-67
2023/01/19 06:57:10;;;;;;;3.92;1.27;;;4.20;99.90;;;;;;5075770;28;20095;-66
2023/01/19 06:59:37;;;;;;;2.00;1.35;;;3.90;99.90;;;;;;5076202;28;20076;-66
2023/01/19 07:02:03;;;;;;;2.05;1.70;;;4.00;99.90;;;;;;5075903;28;20036;-66
2023/01/19 07:04:29;;;;;;;3.67;1.60;;;3.90;99.90;;;;;;5075380;28;20489;-66
2023/01/19 07:06:55;;;;;;;2.08;1.60;;;3.90;99.90;;;;;;5076116;28;20055;-66
2023/01/19 07:09:21;;;;;;;1.35;0.98;;;3.80;99.90;;;;;;5074590;28;20036;-66
2023/01/19 07:11:47;;;;;;;3.45;1.50;;;3.90;99.90;;;;;;5076043;28;20036;-66
2023/01/19 07:14:13;;;;;;;2.17;1.10;;;3.80;99.90;;;;;;5075474;28;20040;-66
2023/01/19 07:16:38;;;;;;;2.10;1.30;;;4.10;99.90;;;;;;5074922;28;20059;-67
2023/01/19 07:19:04;;;;;;;1.58;1.00;;;3.80;99.90;;;;;;5074724;28;20041;-67
2023/01/19 07:21:30;;;;;;;2.63;1.23;;;3.80;99.90;;;;;;5074456;28;20425;-67
2023/01/19 07:23:56;;;;;;;3.28;1.20;;;3.80;99.90;;;;;;5074706;28;20466;-67
2023/01/19 07:26:24;;;;;;;9.55;1.75;;;3.80;99.90;;;;;;5074646;28;20094;-67
2023/01/19 07:28:51;;;;;;;5.10;1.42;;;3.70;99.90;;;;;;5056869;28;20119;-67
2023/01/19 07:31:17;;;;;;;4.00;2.08;;;3.70;99.90;;;;;;5075007;28;20094;-66
2023/01/19 07:33:43;;;;;;;3.38;2.28;;;3.80;99.90;;;;;;5082381;28;20076;-66
2023/01/19 07:36:09;;;;;;;8.05;3.20;;;3.80;99.90;;;;;;5058796;28;20051;-66
2023/01/19 07:38:35;;;;;;;3.35;2.20;;;3.80;99.90;;;;;;5076180;28;20069;-66
2023/01/19 07:41:02;;;;;;;9.98;2.33;;;3.80;99.90;;;;;;5076294;28;20119;-66
2023/01/19 07:43:28;;;;;;;3.45;1.73;;;3.90;99.90;;;;;;5074814;28;20169;-66
2023/01/19 07:45:58;;;;;;;6.97;2.42;;;3.90;99.90;;;;;;5074238;28;20496;-67
2023/01/19 07:48:24;;;;;;;6.50;2.80;;;3.90;99.90;;;;;;5074642;28;20052;-66
2023/01/19 07:50:50;;;;;;;4.93;2.38;;;3.90;99.90;;;;;;5074653;28;20145;-66
2023/01/19 07:53:16;;;;;;;4.15;2.20;;;3.90;99.90;;;;;;5075434;28;20079;-66
2023/01/19 07:55:42;;;;;;;5.07;1.58;;;3.90;99.90;;;;;;5074849;28;20033;-66
2023/01/19 07:58:08;;;;;;;8.00;2.63;;;3.90;99.90;;;;;;5074766;28;20457;-66
2023/01/19 08:00:35;;;;;;;4.57;2.47;;;3.90;99.90;;;;;;5074445;28;20040;-67
2023/01/19 08:03:02;;;;;;;6.30;2.40;;;4.00;99.90;;;;;;5056676;28;20079;-66
2023/01/19 08:05:28;;;;;;;5.68;2.63;;;4.00;99.90;;;;;;5074357;28;20079;-66
2023/01/19 08:07:57;;;;;;;10.93;3.08;;;4.00;99.90;;;;;;5075167;28;20075;-66
2023/01/19 08:10:25;;;;;;;4.88;1.98;;;4.00;99.90;;;;;;5074444;28;20079;-66
2023/01/19 08:12:55;;;;;;;6.75;2.28;;;4.10;99.90;;;;;;5056393;28;20124;-66
2023/01/19 08:15:23;;;;;;;7.07;2.10;;;4.20;99.90;;;;;;5056841;28;20044;-66
2023/01/19 08:17:55;;;;;;;6.18;2.03;;;4.20;99.90;;;;;;5074214;28;20045;-66
2023/01/19 08:20:22;;;;;;;3.15;2.10;;;4.30;99.90;;;;;;5055830;28;20055;-66
2023/01/19 08:22:48;;;;;;;4.28;2.35;;;4.30;99.90;;;;;;5074040;28;20044;-67
2023/01/19 08:25:14;;;;;;;8.85;2.15;;;4.40;99.90;;;;;;5074005;28;20075;-67
2023/01/19 08:27:39;;;;;;;4.97;2.00;;;4.40;99.90;;;;;;5056384;28;20455;-66
2023/01/19 08:30:06;;;;;;;3.35;2.08;;;4.40;99.90;;;;;;5074305;28;20037;-66
2023/01/19 08:32:31;;;;;;;7.55;2.13;;;4.50;99.90;;;;;;5073907;28;20534;-66
2023/01/19 08:34:57;;;;;;;14.93;2.20;;;4.50;99.90;;;;;;5074581;28;20040;-66
2023/01/19 08:37:23;;;;;;;5.05;2.72;;;4.50;99.90;;;;;;5073922;28;20041;-66
2023/01/19 08:39:49;;;;;;;6.50;1.92;;;4.50;99.90;;;;;;5073625;28;20102;-67
2023/01/19 08:42:15;;;;;;;8.00;1.75;;;4.60;99.90;;;;;;5073852;28;20104;-67
2023/01/19 08:44:41;;;;;;;3.55;1.70;;;4.60;99.90;;;;;;5073848;28;20104;-67
2023/01/19 08:47:07;;;;;;;6.63;1.80;;;4.60;99.90;;;;;;5073602;28;20044;-67
2023/01/19 08:49:34;;;;;;;5.15;2.75;;;4.70;99.90;;;;;;5073745;28;20462;-66
2023/01/19 08:52:01;;;;;;;11.43;2.70;;;4.70;99.90;;;;;;5073748;28;20048;-67
2023/01/19 08:54:27;;;;;;;7.80;2.22;;;4.70;99.90;;;;;;5056829;28;20078;-66
2023/01/19 08:56:53;;;;;;;4.63;2.45;;;4.80;99.90;;;;;;5074023;28;20044;-67
2023/01/19 08:59:19;;;;;;;14.43;2.80;;;4.70;99.90;;;;;;5073573;28;20100;-67
2023/01/19 09:01:45;;;;;;;6.25;2.35;;;4.70;99.90;;;;;;5056720;28;20392;-67
2023/01/19 09:04:10;;;;;;;8.52;2.90;;;4.60;99.90;;;;;;5073904;28;20445;-67
2023/01/19 09:06:36;;;;;;;4.80;2.28;;;4.60;99.90;;;;;;5040104;28;20048;-67
2023/01/19 09:09:02;;;;;;;6.55;2.75;;;4.70;99.90;;;;;;5074127;28;20037;-67
2023/01/19 09:11:29;;;;;;;4.57;2.45;;;4.70;99.90;;;;;;5055899;28;20044;-67
2023/01/19 09:13:55;;;;;;;3.33;2.22;;;4.70;99.90;;;;;;5073552;28;20123;-67
2023/01/19 09:16:20;;;;;;;8.18;3.28;;;4.70;99.90;;;;;;5074304;28;20179;-67
2023/01/19 09:18:46;;;;;;;5.60;2.85;;;4.60;99.90;;;;;;5073160;28;20039;-67
2023/01/19 09:21:12;;;;;;;7.57;3.72;;;4.60;99.90;;;;;;5073977;28;20206;-67
2023/01/19 09:23:38;;;;;;;6.30;2.65;;;4.60;99.90;;;;;;5073442;28;20084;-67
2023/01/19 09:26:05;;;;;;;7.30;2.80;;;4.70;99.90;;;;;;5073358;28;20079;-67
2023/01/19 09:28:31;;;;;;;4.15;2.42;;;4.70;99.90;;;;;;5073376;28;20461;-67
2023/01/19 09:30:57;;;;;;;7.93;2.72;;;4.70;99.90;;;;;;5055586;28;20124;-67
2023/01/19 09:33:23;;;;;;;9.98;2.42;;;4.70;99.90;;;;;;5077290;28;20123;-67
2023/01/19 09:35:50;;;;;;;11.35;3.13;;;4.90;99.90;;;;;;5077357;28;20048;-66
2023/01/19 09:38:17;;;;;;;6.50;2.13;;;4.60;99.90;;;;;;5077336;28;20405;-67
2023/01/19 09:40:48;;;;;;;9.73;2.95;;;4.70;99.90;;;;;;5077201;28;20044;-67
2023/01/19 09:43:20;;;;;;;5.53;2.60;;;4.70;99.90;;;;;;5077170;28;20055;-67
2023/01/19 09:46:01;;;;;;;11.60;2.88;;;4.60;99.90;;;;;;5060356;28;20353;-67
2023/01/19 09:48:46;;;;;;;27.63;3.60;;;4.60;99.90;;;;;;5077621;28;20044;-67
2023/01/19 09:51:33;;;;;;;10.95;2.92;;;4.60;99.90;;;;;;5077835;28;20090;-67
2023/01/19 09:54:13;;;;;;;4.15;2.10;;;4.60;99.90;;;;;;5077261;28;20090;-67
2023/01/19 09:56:39;;;;;;;9.65;2.33;;;4.60;99.90;;;;;;5076957;28;20084;-67
2023/01/19 09:59:27;;;;;;;6.68;2.60;;;4.60;99.90;;;;;;5077225;28;20076;-67
2023/01/19 10:02:31;;;;;;;3.85;2.15;;;4.50;99.90;;;;;;5077499;28;20164;-67
2023/01/19 10:05:01;;;;;;;;;;;4.60;99.90;;;;;;5059172;28;20040;-67
2023/01/19 10:07:47;;;;;;;9.63;2.92;;;4.50;99.90;;;;;;5076709;28;19920;-67
2023/01/19 10:10:28;;;;;;;11.75;3.00;;;4.60;99.90;;;;;;5076695;28;20040;-67
2023/01/19 10:13:12;;;;;;;5.90;2.80;;;4.70;99.90;;;;;;5076653;28;20465;-67
2023/01/19 10:16:04;;;;;;;6.85;2.53;;;4.70;99.90;;;;;;5076461;28;20044;-67
2023/01/19 10:18:42;;;;;;;10.27;3.53;;;4.80;99.90;;;;;;5076485;28;20044;-67
2023/01/19 10:21:10;;;;;;;7.10;2.45;;;4.80;99.90;;;;;;5077275;28;20048;-67
2023/01/19 10:24:11;;;;;;;9.15;2.58;;;4.90;99.90;;;;;;5075952;28;20131;-67
2023/01/19 10:26:44;;;;;;;8.45;2.40;;;5.00;99.90;;;;;;5061083;28;20048;-67
2023/01/19 10:29:17;;;;;;;10.88;2.55;;;5.00;99.90;;;;;;5076574;28;20045;-67
2023/01/19 10:31:44;;;;;;;;;;;5.10;99.90;;;;;;5059855;28;20377;-67
2023/01/19 10:34:17;;;;;;;8.13;2.33;;;5.10;99.90;;;;;;5076313;28;19956;-68
2023/01/19 10:36:43;;;;;;;7.40;2.23;;;5.20;99.90;;;;;;5077071;28;20045;-67
2023/01/19 10:39:13;;;;;;;4.45;2.38;;;5.20;99.90;;;;;;5075952;28;20045;-67
2023/01/19 10:41:47;;;;;;;9.30;2.10;;;5.20;99.90;;;;;;5076658;28;20045;-67
2023/01/19 10:44:35;;;;;;;7.00;2.72;;;5.20;99.90;;;;;;5074922;28;20076;-66
2023/01/19 10:47:01;;;;;;;9.13;2.40;;;5.20;99.90;;;;;;5075633;28;20048;-67
2023/01/19 10:49:39;;;;;;;8.15;2.22;;;5.20;99.90;;;;;;5075840;28;20044;-67
2023/01/19 10:52:38;;;;;;;11.43;3.05;;;5.20;99.90;;;;;;5077006;28;20036;-67
2023/01/19 10:55:06;;;;;;;11.88;2.60;;;5.30;99.90;;;;;;5031991;28;20056;-67
2023/01/19 10:57:37;;;;;;;7.30;2.40;;;5.40;99.90;;;;;;5075678;28;20055;-67
2023/01/19 11:00:27;;;;;;;6.68;2.83;;;5.40;99.90;;;;;;5075669;28;20461;-67
2023/01/19 11:02:53;;;;;;;4.00;2.40;;;5.60;99.90;;;;;;5076097;28;20069;-68
2023/01/19 11:05:24;;;;;;;9.48;2.38;;;5.70;99.90;;;;;;5076376;28;20049;-67
2023/01/19 11:07:50;;;;;;;3.85;2.05;;;5.70;99.90;;;;;;5057777;28;20036;-67
2023/01/19 11:10:16;;;;;;;4.35;2.03;;;5.90;99.90;;;;;;5075521;28;20047;-68
2023/01/19 11:12:53;;;;;;;5.10;4.13;;;5.90;99.90;;;;;;5058150;28;20032;-67
2023/01/19 11:15:41;;;;;;;7.53;1.80;;;5.90;99.90;;;;;;5057515;28;20040;-67
2023/01/19 11:18:07;;;;;;;5.88;2.10;;;5.90;99.90;;;;;;5075023;28;20535;-68
2023/01/19 11:20:51;;;;;;;9.77;2.67;;;5.90;99.90;;;;;;5076357;28;20047;-68
2023/01/19 11:23:28;;;;;;;4.18;1.85;;;5.90;99.90;;;;;;5040836;28;20045;-67
2023/01/19 11:26:04;;;;;;;3.17;2.40;;;5.90;99.90;;;;;;5074786;28;20492;-66
2023/01/19 11:28:41;;;;;;;6.22;2.00;;;5.90;99.90;;;;;;5074888;28;20044;-67
2023/01/19 11:31:09;;;;;;;4.97;3.08;;;6.00;99.90;;;;;;5075151;28;20048;-67
2023/01/19 11:33:41;;;;;;;1.58;1.45;;;5.90;99.90;;;;;;5075457;28;20524;-67
2023/01/19 11:36:22;;;;;;;12.02;2.67;;;6.00;99.90;;;;;;5074636;28;20473;-67
2023/01/19 11:38:53;;;;;;;9.82;2.08;;;6.00;99.90;;;;;;5075008;28;20078;-66
2023/01/19 11:41:31;;;;;;;4.22;2.45;;;6.00;99.90;;;;;;5056590;28;20037;-67
2023/01/19 11:44:10;;;;;;;7.03;1.90;;;6.10;99.90;;;;;;5056439;28;20052;-67
2023/01/19 11:46:39;;;;;;;3.47;1.88;;;6.10;99.90;;;;;;5074966;28;20041;-67
2023/01/19 11:49:18;;;;;;;6.75;2.72;;;6.10;99.90;;;;;;5074840;28;20048;-66
2023/01/19 11:52:06;;;;;;;5.63;1.80;;;6.10;99.90;;;;;;5074562;28;20079;-66
2023/01/19 11:54:54;;;;;;;5.18;1.45;;;6.20;99.90;;;;;;5074781;28;20123;-66
2023/01/19 11:57:20;;;;;;;2.78;1.67;;;6.20;99.90;;;;;;5074599;28;20052;-66
2023/01/19 11:59:47;;;;;;;2.28;1.80;;;6.20;99.90;;;;;;5074143;28;20542;-66
2023/01/19 12:02:24;;;;;;;3.13;2.00;;;6.30;99.90;;;;;;5074436;28;20047;-67
2023/01/19 12:04:53;;;;;;;1.73;1.27;;;6.30;99.90;;;;;;5074348;28;20464;-67
2023/01/19 12:07:26;;;;;;;3.15;1.45;;;6.30;99.90;;;;;;5074350;28;20119;-67
2023/01/19 12:09:59;;;;;;;5.53;1.42;;;6.30;99.90;;;;;;5074852;28;20040;-67
2023/01/19 12:12:32;;;;;;;3.75;1.48;;;6.30;99.90;;;;;;5056830;28;20048;-66
2023/01/19 12:15:04;;;;;;;4.88;1.63;;;6.30;99.90;;;;;;5075077;28;20045;-66
2023/01/19 12:17:44;;;;;;;4.47;1.30;;;6.40;99.90;;;;;;5074181;28;20166;-66
2023/01/19 12:20:19;;;;;;;2.22;1.40;;;6.40;99.90;;;;;;5074136;28;20044;-66
2023/01/19 12:22:54;;;;;;;4.20;1.95;;;6.40;99.90;;;;;;5074137;28;20051;-66
2023/01/19 12:25:27;;;;;;;2.95;1.90;;;6.40;99.90;;;;;;5074939;28;20139;-67
2023/01/19 12:27:53;;;;;;;3.15;1.90;;;6.50;99.90;;;;;;5074248;28;20457;-67
2023/01/19 12:30:23;;;;;;;1.30;1.20;;;6.50;99.90;;;;;;5074130;28;20079;-67
2023/01/19 12:32:52;;;;;;;2.28;1.23;;;6.50;99.90;;;;;;5073849;28;20056;-67
2023/01/19 12:35:53;;;;;;;2.13;1.08;;;6.50;99.90;;;;;;5073918;28;20041;-66
2023/01/19 12:38:45;;;;;;;9.73;2.38;;;6.50;99.90;;;;;;5055841;28;20044;-67
2023/01/19 12:41:17;;;;;;;5.07;1.60;;;6.50;99.90;;;;;;5056587;28;20473;-67
2023/01/19 12:43:42;;;;;;;6.00;1.67;;;6.60;99.90;;;;;;5073807;28;20041;-66
2023/01/19 12:46:29;;;;;;;4.65;1.85;;;6.60;99.90;;;;;;5074031;28;20342;-66
2023/01/19 12:49:03;;;;;;;3.90;1.40;;;6.60;99.90;;;;;;5074077;28;20044;-66
2023/01/19 12:51:28;;;;;;;3.50;1.17;;;6.70;99.90;;;;;;5056393;28;20068;-66
2023/01/19 12:53:58;;;;;;;1.63;1.13;;;6.70;99.90;;;;;;5073623;28;20465;-66
2023/01/19 12:56:34;;;;;;;2.38;1.25;;;6.70;99.90;;;;;;5073770;28;20036;-67
2023/01/19 12:59:00;;;;;;;4.35;1.67;;;6.70;99.90;;;;;;5073389;28;20048;-67
2023/01/19 13:01:26;;;;;;;3.42;2.15;;;6.70;99.90;;;;;;5055962;28;20094;-66
2023/01/19 13:04:24;;;;;;;2.05;1.27;;;6.60;99.90;;;;;;5055701;28;20044;-67
2023/01/19 13:06:51;;;;;;;1.55;1.30;;;6.50;99.90;;;;;;5073674;28;20119;-67
2023/01/19 13:09:36;;;;;;;5.25;1.27;;;6.40;99.90;;;;;;5073786;28;20044;-67
2023/01/19 13:12:20;;;;;;;3.47;0.70;;;6.20;99.90;;;;;;5073027;28;20041;-67
2023/01/19 13:14:46;;;;;;;1.35;0.98;;;6.20;99.90;;;;;;5072694;28;20045;-67
2023/01/19 13:17:42;;;;;;;5.18;1.67;;;6.10;99.90;;;;;;5038549;28;20044;-67
2023/01/19 13:20:55;;;;;;;3.65;1.55;;;6.00;99.90;;;;;;5073204;28;20047;-67
2023/01/19 13:23:27;;;;;;;2.38;1.25;;;6.00;99.90;;;;;;5073300;28;20095;-67